Time;durP1;ratioP1;P1;durP2;ratioP2;P2;SDS_P1;SDS_P2;PMS_P1;PMS_P2;Temp;Humidity;BMP_temperature;BMP_pressure;BME280_temperature;BME280_humidity;BME280_pressure;Samples;Min_cycle;Max_cycle;Signal;HPM_P1;HPM_P2
2021/03/11 00:01:02;;;;;;;27.98;18.90;;;;;;;6.71;100.00;99959.91;10175956;29;20048;-71
2021/03/11 00:06:03;;;;;;;26.67;17.98;;;;;;;6.70;100.00;99932.03;10176778;29;20339;-70
2021/03/11 00:11:04;;;;;;;26.25;17.67;;;;;;;6.74;100.00;99924.94;10178241;29;20044;-70
2021/03/11 00:16:06;;;;;;;24.52;16.58;;;;;;;6.88;100.00;99904.28;10215134;29;20465;-71
2021/03/11 00:21:07;;;;;;;22.73;15.98;;;;;;;7.00;100.00;99919.50;10207125;29;20047;-71
2021/03/11 00:26:08;;;;;;;21.25;14.57;;;;;;;7.17;100.00;99916.19;10223339;29;20048;-71
2021/03/11 00:31:10;;;;;;;23.83;15.65;;;;;;;7.16;100.00;99897.00;10223154;29;20442;-71
2021/03/11 00:36:11;;;;;;;22.40;14.35;;;;;;;7.21;100.00;99905.50;10223269;29;20047;-70
2021/03/11 00:41:12;;;;;;;21.80;15.35;;;;;;;7.17;100.00;99880.38;10223874;29;20043;-71
2021/03/11 00:46:13;;;;;;;20.20;14.57;;;;;;;7.21;100.00;99881.09;10189963;29;20059;-69
2021/03/11 00:51:15;;;;;;;17.80;13.80;;;;;;;7.13;100.00;99865.69;10183969;29;20048;-70
2021/03/11 00:56:28;;;;;;;22.60;14.60;;;;;;;7.19;100.00;99864.59;10183391;29;20040;-71
2021/03/11 01:01:30;;;;;;;18.33;13.13;;;;;;;7.22;100.00;99851.34;10166730;29;20357;-71
2021/03/11 01:06:33;;;;;;;21.63;14.07;;;;;;;7.14;100.00;99843.81;10181733;29;20087;-70
2021/03/11 01:11:35;;;;;;;17.45;12.30;;;;;;;7.15;100.00;99837.66;10180612;29;20052;-71
2021/03/11 01:16:36;;;;;;;18.25;13.10;;;;;;;7.23;100.00;99821.63;10165101;29;20051;-71
2021/03/11 01:21:38;;;;;;;17.55;12.02;;;;;;;7.24;100.00;99813.72;10182263;29;20065;-70
2021/03/11 01:26:49;;;;;;;13.82;9.15;;;;;;;7.27;100.00;99812.72;10171525;29;20477;-70
2021/03/11 01:31:50;;;;;;;14.50;9.82;;;;;;;7.30;100.00;99790.75;10215338;29;20052;-70
2021/03/11 01:36:51;;;;;;;11.15;8.77;;;;;;;7.30;100.00;99778.53;10181421;29;20139;-70
2021/03/11 01:41:52;;;;;;;11.90;9.05;;;;;;;7.31;100.00;99769.75;10205481;29;20044;-71
2021/03/11 01:46:53;;;;;;;10.70;7.45;;;;;;;7.47;100.00;99769.91;10181629;29;20056;-71
2021/03/11 01:51:55;;;;;;;10.80;7.38;;;;;;;7.63;100.00;99773.53;10180561;29;20381;-70
2021/03/11 01:57:12;;;;;;;10.07;6.30;;;;;;;7.49;100.00;99737.47;10180943;29;20373;-70
2021/03/11 02:02:13;;;;;;;7.80;5.20;;;;;;;7.54;100.00;99721.53;10180154;29;20377;-71
2021/03/11 02:07:14;;;;;;;7.38;5.38;;;;;;;7.56;100.00;99717.94;10179596;29;20044;-70
2021/03/11 02:12:33;;;;;;;7.20;4.90;;;;;;;7.66;100.00;99710.50;10180149;29;20107;-70
2021/03/11 02:17:48;;;;;;;6.18;4.60;;;;;;;7.68;100.00;99695.56;10178458;29;20355;-71
2021/03/11 02:23:11;;;;;;;7.90;4.93;;;;;;;7.63;100.00;99666.06;10180130;29;20055;-70
2021/03/11 02:28:29;;;;;;;6.28;4.78;;;;;;;7.56;100.00;99630.59;10178866;29;20036;-70
2021/03/11 02:33:34;;;;;;;6.75;4.72;;;;;;;7.70;100.00;99646.50;10194145;29;20048;-71
2021/03/11 02:38:36;;;;;;;6.47;4.53;;;;;;;7.66;100.00;99626.59;10178122;29;20450;-71
2021/03/11 02:43:38;;;;;;;7.45;5.45;;;;;;;7.63;100.00;99617.13;10179177;29;20059;-70
2021/03/11 02:48:41;;;;;;;6.70;4.93;;;;;;;7.58;100.00;99598.16;10178331;29;20044;-71
2021/03/11 02:53:42;;;;;;;6.38;5.07;;;;;;;7.61;100.00;99603.22;10179016;29;20044;-71
2021/03/11 02:58:44;;;;;;;6.20;4.15;;;;;;;7.62;100.00;99585.72;10178088;29;20041;-70
2021/03/11 03:03:47;;;;;;;7.20;4.20;;;;;;;7.58;100.00;99578.94;10178929;29;20048;-70
2021/03/11 03:08:49;;;;;;;6.05;4.32;;;;;;;7.61;100.00;99576.19;10177995;29;20442;-70
2021/03/11 03:13:52;;;;;;;5.78;4.50;;;;;;;7.65;100.00;99572.47;10177716;29;20048;-70
2021/03/11 03:18:54;;;;;;;5.28;4.00;;;;;;;7.68;100.00;99582.81;10177997;29;20048;-71
2021/03/11 03:23:58;;;;;;;5.60;4.38;;;;;;;7.67;100.00;99572.41;10177849;29;20403;-70
2021/03/11 03:28:59;;;;;;;6.68;4.28;;;;;;;7.59;100.00;99557.06;10177902;29;20373;-70
2021/03/11 03:34:00;;;;;;;6.43;4.57;;;;;;;7.48;100.00;99549.72;10177831;29;20044;-70
2021/03/11 03:39:02;;;;;;;6.88;4.97;;;;;;;7.36;100.00;99539.84;10177167;29;20441;-70
2021/03/11 03:44:05;;;;;;;6.18;4.28;;;;;;;7.56;100.00;99571.16;10176150;29;20051;-71
2021/03/11 03:49:11;;;;;;;7.05;4.50;;;;;;;7.80;100.00;99574.34;10176629;29;20131;-71
2021/03/11 03:54:25;;;;;;;5.70;4.22;;;;;;;7.74;100.00;99547.59;10177006;29;20140;-70
2021/03/11 03:59:31;;;;;;;6.13;3.90;;;;;;;7.76;100.00;99543.97;10177370;29;20055;-70
2021/03/11 04:04:38;;;;;;;6.15;4.53;;;;;;;7.80;100.00;99547.28;10176597;29;20056;-70
2021/03/11 04:09:40;;;;;;;6.72;4.70;;;;;;;7.63;100.00;99522.75;10175010;29;20135;-70
2021/03/11 04:14:43;;;;;;;7.75;4.90;;;;;;;7.72;100.00;99515.34;10176457;29;20497;-70
2021/03/11 04:19:46;;;;;;;7.40;5.55;;;;;;;7.77;100.00;99534.34;10175328;29;20363;-70
2021/03/11 04:24:48;;;;;;;7.13;5.10;;;;;;;7.94;100.00;99524.72;10177055;29;20040;-70
2021/03/11 04:29:51;;;;;;;8.70;5.50;;;;;;;7.95;100.00;99501.94;10176355;29;20055;-70
2021/03/11 04:34:52;;;;;;;5.78;4.25;;;;;;;8.07;100.00;99500.44;10176902;29;20489;-70
2021/03/11 04:39:53;;;;;;;6.28;5.00;;;;;;;7.94;100.00;99487.13;10174607;29;20048;-70
2021/03/11 04:44:55;;;;;;;8.13;5.63;;;;;;;7.87;100.00;99476.09;10175839;29;20044;-70
2021/03/11 04:49:59;;;;;;;6.35;4.75;;;;;;;7.84;100.00;99450.06;10175860;29;20457;-70
2021/03/11 04:55:01;;;;;;;7.40;5.17;;;;;;;7.87;100.00;99455.13;10175211;29;20059;-70
2021/03/11 05:00:05;;;;;;;5.35;4.00;;;;;;;8.23;100.00;99472.50;10180618;29;20067;-70
2021/03/11 05:05:07;;;;;;;7.82;4.80;;;;;;;8.06;100.00;99447.16;10182421;29;20070;-69
2021/03/11 05:10:09;;;;;;;5.07;3.83;;;;;;;8.25;100.00;99465.41;10182388;29;20095;-70
2021/03/11 05:15:11;;;;;;;4.95;3.65;;;;;;;8.22;100.00;99441.94;10182589;29;20051;-70
2021/03/11 05:20:13;;;;;;;4.57;3.25;;;;;;;8.40;100.00;99453.25;10182743;29;20043;-70
2021/03/11 05:25:14;;;;;;;4.28;3.00;;;;;;;8.51;100.00;99458.78;10181725;29;20052;-70
2021/03/11 05:30:16;;;;;;;7.78;4.35;;;;;;;8.78;100.00;99459.06;10180891;29;20040;-70
2021/03/11 05:35:17;;;;;;;8.27;4.88;;;;;;;8.91;100.00;99465.31;10182819;29;20134;-70
2021/03/11 05:40:22;;;;;;;6.65;4.22;;;;;;;8.80;100.00;99430.91;10181172;29;20062;-70
2021/03/11 05:45:25;;;;;;;7.40;4.30;;;;;;;8.97;100.00;99431.66;10181325;29;20051;-70
2021/03/11 05:50:28;;;;;;;6.55;4.95;;;;;;;9.14;100.00;99449.09;10182193;29;20036;-70
2021/03/11 05:55:29;;;;;;;8.07;5.13;;;;;;;8.94;100.00;99428.38;10180466;29;20052;-70
2021/03/11 06:00:30;;;;;;;6.47;4.55;;;;;;;9.08;100.00;99450.31;10182312;29;20070;-70
2021/03/11 06:05:32;;;;;;;7.65;5.18;;;;;;;8.98;100.00;99430.75;10181747;29;20060;-71
2021/03/11 06:10:35;;;;;;;6.07;4.35;;;;;;;9.09;100.00;99417.00;10179779;29;20099;-70
2021/03/11 06:15:39;;;;;;;5.88;4.40;;;;;;;9.17;100.00;99422.66;10179431;29;20040;-70
2021/03/11 06:20:40;;;;;;;7.70;4.75;;;;;;;9.33;100.00;99425.25;10145700;29;20057;-70
2021/03/11 06:25:42;;;;;;;7.75;5.28;;;;;;;9.19;100.00;99397.16;10155330;29;20052;-70
2021/03/11 06:30:43;;;;;;;9.57;5.60;;;;;;;9.46;100.00;99436.72;10174763;29;20423;-70
2021/03/11 06:35:44;;;;;;;9.43;5.20;;;;;;;9.51;100.00;99400.53;10194591;29;20055;-70
2021/03/11 06:40:53;;;;;;;6.50;4.85;;;;;;;9.51;100.00;99393.50;10171393;29;20048;-70
2021/03/11 06:46:05;;;;;;;8.60;5.10;;;;;;;9.59;100.00;99397.44;10178251;29;20048;-70
2021/03/11 06:51:16;;;;;;;8.70;5.43;;;;;;;9.66;100.00;99372.47;10178819;29;20044;-70
2021/03/11 06:56:19;;;;;;;9.90;5.28;;;;;;;9.81;100.00;99387.31;10177416;29;20056;-70
2021/03/11 07:01:22;;;;;;;6.00;4.50;;;;;;;9.83;100.00;99386.28;10174830;29;20103;-69
2021/03/11 07:06:29;;;;;;;8.18;5.40;;;;;;;9.92;100.00;99386.66;10175233;29;20056;-66
2021/03/11 07:11:32;;;;;;;8.07;4.97;;;;;;;10.03;100.00;99389.50;10176496;29;20048;-68
2021/03/11 07:16:34;;;;;;;6.50;4.13;;;;;;;9.90;100.00;99350.78;10175185;29;20095;-70
2021/03/11 07:21:44;;;;;;;5.70;3.65;;;;;;;10.05;100.00;99364.75;10175132;29;20052;-69
2021/03/11 07:26:59;;;;;;;7.90;4.10;;;;;;;10.08;100.00;99343.53;10174671;29;20079;-69
2021/03/11 07:32:06;;;;;;;7.82;4.38;;;;;;;10.25;100.00;99387.25;10159340;29;20048;-68
2021/03/11 07:37:09;;;;;;;8.15;4.65;;;;;;;10.39;100.00;99360.91;10174719;29;20044;-67
2021/03/11 07:42:11;;;;;;;8.70;4.43;;;;;;;10.68;100.00;99359.06;10174659;29;20138;-69
2021/03/11 07:47:12;;;;;;;6.90;3.50;;;;;;;11.10;100.00;99371.22;10174815;29;20496;-69
2021/03/11 07:52:14;;;;;;;8.10;4.13;;;;;;;11.64;99.82;99394.81;10158252;29;20393;-67
2021/03/11 07:57:16;;;;;;;7.35;4.13;;;;;;;11.27;99.82;99330.53;10174833;29;20058;-68
2021/03/11 08:02:20;;;;;;;7.95;4.60;;;;;;;11.26;99.48;99321.78;10174167;29;20064;-69
2021/03/11 08:07:25;;;;;;;;;;;;;;;11.21;99.84;99307.25;10174647;29;20075;-68
2021/03/11 08:12:37;;;;;;;6.40;3.75;;;;;;;11.25;98.94;99303.44;10173719;29;20033;-69
2021/03/11 08:17:46;;;;;;;10.13;4.20;;;;;;;11.12;99.49;99261.25;10173344;29;20071;-67
2021/03/11 08:22:51;;;;;;;4.80;2.90;;;;;;;10.91;100.00;99271.44;10158146;29;20417;-70
2021/03/11 08:27:52;;;;;;;8.70;3.65;;;;;;;10.31;100.00;99223.66;10174114;29;20374;-66
2021/03/11 08:32:54;;;;;;;8.00;3.20;;;;;;;9.59;100.00;99193.19;10176091;29;20067;-72
2021/03/11 08:37:57;;;;;;;5.47;2.50;;;;;;;9.35;100.00;99207.88;10181539;29;20052;-70
2021/03/11 08:42:58;;;;;;;6.80;2.95;;;;;;;9.02;100.00;99195.84;10179302;29;20052;-70
2021/03/11 08:48:14;;;;;;;4.20;2.72;;;;;;;8.77;100.00;99221.03;10134589;29;20367;-71
2021/03/11 08:53:37;;;;;;;5.30;2.20;;;;;;;8.65;100.00;99236.56;10144141;29;20076;-71
2021/03/11 08:58:50;;;;;;;7.15;2.47;;;;;;;8.56;100.00;99254.63;10144295;29;20458;-70
2021/03/11 09:03:51;;;;;;;11.30;2.60;;;;;;;8.41;100.00;99279.13;10144732;29;20053;-69
2021/03/11 09:08:53;;;;;;;9.88;2.45;;;;;;;8.46;100.00;99311.19;10143365;29;20063;-67
2021/03/11 09:13:54;;;;;;;13.75;2.95;;;;;;;8.68;100.00;99332.69;10160845;29;20052;-69
2021/03/11 09:18:57;;;;;;;10.20;3.22;;;;;;;8.87;100.00;99340.38;10181432;29;20469;-68
2021/03/11 09:23:58;;;;;;;10.70;3.22;;;;;;;9.15;100.00;99322.06;10182549;29;20111;-68
2021/03/11 09:29:01;;;;;;;12.80;3.90;;;;;;;9.15;100.00;99301.03;10181179;29;20370;-67
2021/03/11 09:34:02;;;;;;;12.75;3.95;;;;;;;9.23;100.00;99288.28;10181805;29;20044;-65
2021/03/11 09:39:07;;;;;;;12.30;4.13;;;;;;;9.36;100.00;99249.84;10165134;29;20052;-68
2021/03/11 09:44:08;;;;;;;18.05;5.40;;;;;;;10.07;100.00;99286.56;10180694;29;20059;-66
2021/03/11 09:49:10;;;;;;;16.15;4.20;;;;;;;13.43;100.00;99351.97;10164840;29;20366;-68
2021/03/11 09:54:12;;;;;;;15.23;4.43;;;;;;;14.45;88.78;99306.91;10180398;29;20488;-68
2021/03/11 09:59:15;;;;;;;15.07;4.03;;;;;;;14.45;81.15;99260.06;10179982;29;20048;-69
2021/03/11 10:04:25;;;;;;;16.02;3.80;;;;;;;14.81;77.14;99224.38;10180435;29;20056;-69
2021/03/11 10:09:38;;;;;;;13.00;4.18;;;;;;;15.39;73.94;99195.53;10163680;29;20466;-68
2021/03/11 10:14:42;;;;;;;10.80;3.72;;;;;;;15.93;73.30;99257.13;10180263;29;20063;-68
2021/03/11 10:19:45;;;;;;;10.32;3.00;;;;;;;16.61;69.90;99244.00;10179050;29;20051;-70
2021/03/11 10:24:49;;;;;;;9.02;3.42;;;;;;;16.47;68.39;99231.94;10179252;29;20059;-69
2021/03/11 10:30:15;;;;;;;10.40;3.30;;;;;;;17.17;66.05;99204.16;10178832;29;20410;-69
2021/03/11 10:35:25;;;;;;;8.60;2.97;;;;;;;16.40;65.50;99163.50;10173733;29;20451;-68
2021/03/11 10:40:26;;;;;;;9.48;3.08;;;;;;;16.82;64.37;99137.47;10178638;29;20362;-68
2021/03/11 10:45:38;;;;;;;8.00;2.72;;;;;;;17.36;62.70;99134.06;10178562;29;20051;-66
2021/03/11 10:50:45;;;;;;;6.93;2.90;;;;;;;17.84;61.88;99179.13;10162736;29;20072;-69
2021/03/11 10:55:47;;;;;;;9.55;3.35;;;;;;;17.71;60.33;99142.19;10177542;29;20041;-68
2021/03/11 11:00:49;;;;;;;10.68;3.17;;;;;;;17.93;58.45;99169.41;10178807;29;20067;-68
2021/03/11 11:05:53;;;;;;;10.65;3.33;;;;;;;15.90;60.68;99022.84;10177289;29;20052;-68
2021/03/11 11:10:55;;;;;;;11.73;2.92;;;;;;;16.76;58.48;99122.91;10160453;29;20047;-70
2021/03/11 11:15:56;;;;;;;13.25;3.72;;;;;;;17.60;56.62;99184.13;10159737;29;20053;-69
2021/03/11 11:20:59;;;;;;;11.48;3.28;;;;;;;17.88;54.72;99140.56;10167856;29;20056;-70
2021/03/11 11:26:00;;;;;;;9.38;2.78;;;;;;;17.80;54.64;99127.16;10168099;29;20040;-69
2021/03/11 11:31:01;;;;;;;10.70;3.47;;;;;;;16.67;56.08;99075.88;10171023;29;20070;-70
2021/03/11 11:36:03;;;;;;;11.48;3.92;;;;;;;16.26;57.89;99117.75;10192770;29;20135;-70
2021/03/11 11:41:05;;;;;;;14.65;4.63;;;;;;;15.39;57.92;98986.72;10153484;29;20041;-71
2021/03/11 11:46:06;;;;;;;14.05;4.70;;;;;;;16.31;57.50;99102.25;10168188;29;20052;-69
2021/03/11 11:51:07;;;;;;;12.52;3.88;;;;;;;15.34;59.87;99043.81;10177419;29;20044;-70
2021/03/11 11:56:08;;;;;;;14.15;4.57;;;;;;;14.97;59.61;98996.69;10176953;29;20055;-68
2021/03/11 12:01:11;;;;;;;14.82;4.57;;;;;;;15.90;59.16;99121.09;10166261;29;20040;-69
2021/03/11 12:06:14;;;;;;;14.02;4.43;;;;;;;15.88;57.83;98995.56;10153277;29;20089;-68
2021/03/11 12:11:15;;;;;;;11.70;3.85;;;;;;;17.79;55.39;99171.59;10189853;29;20040;-69
2021/03/11 12:16:17;;;;;;;13.70;4.18;;;;;;;15.68;57.35;98948.75;10188767;29;20394;-70
2021/03/11 12:21:18;;;;;;;16.08;4.05;;;;;;;15.63;58.40;98996.97;10189948;29;20462;-68
2021/03/11 12:26:20;;;;;;;12.15;3.92;;;;;;;16.46;56.00;99045.97;10204175;29;20082;-69
2021/03/11 12:31:21;;;;;;;12.65;4.03;;;;;;;17.51;54.55;99076.66;10189502;29;20044;-69
2021/03/11 12:36:23;;;;;;;8.68;2.58;;;;;;;17.28;53.40;99044.28;10180902;29;20119;-69
2021/03/11 12:41:26;;;;;;;9.85;3.10;;;;;;;16.90;53.47;98981.47;10175823;29;20052;-66
2021/03/11 12:46:27;;;;;;;7.32;2.83;;;;;;;17.08;54.37;99037.38;10208935;29;20135;-67
2021/03/11 12:51:29;;;;;;;8.57;2.97;;;;;;;16.75;54.70;99008.69;10195154;29;20056;-69
2021/03/11 12:56:30;;;;;;;10.50;2.97;;;;;;;16.57;55.00;99017.38;10205872;29;20067;-70
2021/03/11 13:01:32;;;;;;;8.00;2.85;;;;;;;16.39;56.64;99031.59;10176568;29;20073;-70
2021/03/11 13:06:36;;;;;;;11.32;3.33;;;;;;;16.65;57.27;99081.34;10148202;29;20056;-68
2021/03/11 13:11:37;;;;;;;9.25;4.30;;;;;;;16.04;58.16;99027.72;10170830;29;20047;-66
2021/03/11 13:16:39;;;;;;;11.90;3.78;;;;;;;16.49;58.70;99073.09;10186649;29;20072;-65
2021/03/11 13:21:41;;;;;;;9.60;3.00;;;;;;;15.63;57.95;98982.84;10180071;29;20044;-66
2021/03/11 13:26:42;;;;;;;7.78;2.88;;;;;;;15.58;57.34;98985.91;10179459;29;20104;-65
2021/03/11 13:31:43;;;;;;;9.52;3.00;;;;;;;15.39;58.85;99031.00;10180048;29;20051;-66
2021/03/11 13:36:45;;;;;;;8.98;3.45;;;;;;;15.13;58.21;98948.41;10179427;29;20062;-67
2021/03/11 13:41:46;;;;;;;9.02;2.95;;;;;;;15.66;59.15;99019.72;10175495;29;20059;-67
2021/03/11 13:46:47;;;;;;;8.43;2.88;;;;;;;15.23;60.11;99007.63;10149824;29;20059;-66
2021/03/11 13:51:49;;;;;;;10.55;3.22;;;;;;;14.48;62.23;98988.66;10177570;29;20119;-68
2021/03/11 13:56:50;;;;;;;10.77;2.95;;;;;;;13.85;63.24;98953.41;10178358;29;20052;-67
2021/03/11 14:01:52;;;;;;;10.60;3.25;;;;;;;14.07;66.18;99030.88;10179569;29;20040;-67
2021/03/11 14:06:53;;;;;;;11.95;3.00;;;;;;;14.11;66.47;99052.66;10178865;29;20040;-70
2021/03/11 14:11:54;;;;;;;9.70;3.67;;;;;;;13.67;66.51;99038.66;10178772;29;20048;-66
2021/03/11 14:16:57;;;;;;;11.45;2.85;;;;;;;13.52;66.71;99049.66;10179569;29;20044;-68
2021/03/11 14:22:00;;;;;;;9.52;3.13;;;;;;;13.53;65.79;99062.75;10179898;29;20059;-68
2021/03/11 14:27:01;;;;;;;9.52;3.13;;;;;;;13.61;65.14;99080.66;10178826;29;20103;-69
2021/03/11 14:32:03;;;;;;;7.43;2.88;;;;;;;13.66;63.30;99087.25;10179633;29;20048;-70
2021/03/11 14:37:05;;;;;;;10.27;2.75;;;;;;;13.43;62.66;99059.16;10178892;29;20484;-70
2021/03/11 14:42:07;;;;;;;10.65;3.05;;;;;;;13.63;62.81;99074.28;10178823;29;20059;-71
2021/03/11 14:47:09;;;;;;;7.10;2.90;;;;;;;13.46;62.19;99063.38;10177838;29;20071;-74
2021/03/11 14:52:13;;;;;;;6.65;2.42;;;;;;;13.43;62.13;99053.03;10178659;29;20134;-70
2021/03/11 14:57:15;;;;;;;8.90;2.50;;;;;;;13.43;62.18;99066.25;10178548;29;20047;-70
2021/03/11 15:02:17;;;;;;;8.70;2.40;;;;;;;13.39;62.98;99073.59;10194124;29;20044;-69
2021/03/11 15:07:18;;;;;;;7.50;2.10;;;;;;;13.17;62.83;99055.97;10176622;29;20048;-73
2021/03/11 15:12:19;;;;;;;8.40;2.70;;;;;;;13.13;62.21;99057.19;10178054;29;20059;-69
2021/03/11 15:17:21;;;;;;;8.88;2.50;;;;;;;13.17;63.58;99077.13;10178158;29;20056;-69
2021/03/11 15:22:22;;;;;;;5.65;2.22;;;;;;;12.88;64.35;99042.41;10178942;29;20059;-69
2021/03/11 15:27:23;;;;;;;10.27;2.67;;;;;;;12.70;65.45;99061.47;10178075;29;20055;-70
2021/03/11 15:32:25;;;;;;;9.30;2.70;;;;;;;12.88;65.97;99083.84;10177835;29;20048;-70
2021/03/11 15:37:38;;;;;;;13.93;3.55;;;;;;;12.66;66.54;99070.59;10176909;29;20079;-70
2021/03/11 15:42:40;;;;;;;12.80;2.88;;;;;;;12.36;65.47;99050.88;10177536;29;20040;-70
2021/03/11 15:47:42;;;;;;;9.40;2.80;;;;;;;12.18;66.70;99046.13;10175690;29;20083;-71
2021/03/11 15:52:44;;;;;;;7.93;2.55;;;;;;;12.35;65.83;99074.75;10177475;29;20062;-70
2021/03/11 15:57:45;;;;;;;5.57;2.40;;;;;;;12.35;65.16;99070.31;10176357;29;20438;-70
2021/03/11 16:02:46;;;;;;;8.60;2.10;;;;;;;12.30;65.18;99072.44;10177111;29;20048;-70
2021/03/11 16:08:01;;;;;;;7.88;2.92;;;;;;;12.24;67.34;99091.38;10176529;29;20051;-69
2021/03/11 16:13:04;;;;;;;6.93;2.67;;;;;;;12.21;67.39;99086.38;10177098;29;20358;-70
2021/03/11 16:18:05;;;;;;;7.35;2.17;;;;;;;11.95;65.76;99071.63;10176893;29;20438;-70
2021/03/11 16:23:07;;;;;;;5.57;1.90;;;;;;;11.96;63.36;99057.47;10176552;29;20370;-70
2021/03/11 16:28:08;;;;;;;5.65;1.70;;;;;;;11.81;63.77;99042.75;10176442;29;20569;-70
2021/03/11 16:33:10;;;;;;;5.55;2.28;;;;;;;11.53;65.20;99036.03;10177124;29;20044;-71
2021/03/11 16:38:25;;;;;;;4.88;2.08;;;;;;;11.40;65.72;99036.06;10175130;29;20377;-69
2021/03/11 16:43:26;;;;;;;5.93;2.35;;;;;;;11.30;66.46;99045.56;10177138;29;20040;-70
2021/03/11 16:48:28;;;;;;;8.10;2.10;;;;;;;11.20;67.15;99063.03;10176085;29;20040;-70
2021/03/11 16:53:29;;;;;;;5.25;2.00;;;;;;;11.08;68.19;99055.97;10178034;29;20052;-70
2021/03/11 16:58:30;;;;;;;7.55;2.33;;;;;;;11.00;69.06;99067.06;10184146;29;20059;-70
2021/03/11 17:03:31;;;;;;;9.85;2.63;;;;;;;10.97;68.98;99086.56;10183554;29;20389;-70
2021/03/11 17:08:50;;;;;;;9.70;2.40;;;;;;;10.94;69.42;99097.34;10182924;29;20076;-70
2021/03/11 17:13:51;;;;;;;7.05;2.92;;;;;;;10.81;71.05;99103.53;10183724;29;20066;-69
2021/03/11 17:18:52;;;;;;;9.43;3.15;;;;;;;10.69;73.08;99125.47;10182263;29;20056;-69
2021/03/11 17:23:53;;;;;;;8.63;3.25;;;;;;;10.54;74.42;99116.84;10182671;29;20048;-68
2021/03/11 17:28:55;;;;;;;12.07;3.50;;;;;;;10.52;75.19;99156.44;10177637;29;20056;-70
2021/03/11 17:33:56;;;;;;;8.60;2.65;;;;;;;10.40;76.31;99180.94;10182846;29;20048;-69
2021/03/11 17:39:11;;;;;;;9.68;2.92;;;;;;;10.30;77.15;99185.09;10181168;29;20066;-70
2021/03/11 17:44:18;;;;;;;11.38;3.58;;;;;;;10.22;77.37;99180.34;10181831;29;20052;-69
2021/03/11 17:49:20;;;;;;;8.02;2.78;;;;;;;10.13;77.26;99190.59;10181329;29;20123;-70
2021/03/11 17:54:21;;;;;;;7.07;2.47;;;;;;;10.16;75.33;99209.69;10151931;29;20052;-70
2021/03/11 17:59:23;;;;;;;8.82;2.60;;;;;;;10.10;73.61;99223.25;10161688;29;20048;-70
2021/03/11 18:04:24;;;;;;;8.02;2.33;;;;;;;10.09;72.16;99229.44;10180797;29;20050;-70
2021/03/11 18:09:34;;;;;;;10.60;3.28;;;;;;;10.05;71.23;99227.94;10151102;29;20350;-69
2021/03/11 18:14:36;;;;;;;9.13;2.88;;;;;;;10.03;70.74;99223.75;10141858;29;20447;-69
2021/03/11 18:19:37;;;;;;;13.02;2.72;;;;;;;9.98;70.88;99225.78;10165873;29;20466;-69
2021/03/11 18:24:38;;;;;;;12.93;3.35;;;;;;;10.00;70.12;99235.28;10157541;29;20125;-68
2021/03/11 18:29:40;;;;;;;7.70;2.45;;;;;;;9.86;70.54;99228.28;10179279;29;20052;-69
2021/03/11 18:34:42;;;;;;;10.30;3.08;;;;;;;9.84;71.07;99231.94;10179981;29;20044;-69
2021/03/11 18:39:58;;;;;;;10.73;2.28;;;;;;;9.69;72.32;99223.25;10164110;29;20045;-70
2021/03/11 18:44:59;;;;;;;9.98;2.80;;;;;;;9.51;74.34;99233.13;10139667;29;20049;-70
2021/03/11 18:50:01;;;;;;;10.25;2.90;;;;;;;9.49;76.21;99252.53;10140142;29;20102;-69
2021/03/11 18:55:04;;;;;;;9.75;2.70;;;;;;;9.47;77.28;99281.53;10141553;29;20097;-69
2021/03/11 19:00:11;;;;;;;8.25;2.33;;;;;;;9.44;77.20;99281.75;10139758;29;20049;-69
2021/03/11 19:05:15;;;;;;;11.52;3.00;;;;;;;9.22;78.79;99285.75;10139889;29;20084;-70
2021/03/11 19:10:21;;;;;;;8.13;3.83;;;;;;;8.96;80.51;99280.25;10139175;29;20045;-70
2021/03/11 19:15:23;;;;;;;7.43;2.80;;;;;;;8.82;80.52;99264.47;10137559;29;20057;-70
2021/03/11 19:20:30;;;;;;;9.57;3.65;;;;;;;8.82;77.94;99301.22;10139776;29;20477;-70
2021/03/11 19:25:33;;;;;;;8.75;3.08;;;;;;;8.68;78.54;99295.94;10138298;29;20036;-70
2021/03/11 19:30:36;;;;;;;9.38;3.33;;;;;;;8.57;80.14;99314.06;10139356;29;20120;-70
2021/03/11 19:35:37;;;;;;;7.65;2.60;;;;;;;8.60;80.38;99338.38;10138568;29;20052;-70
2021/03/11 19:40:46;;;;;;;5.45;2.97;;;;;;;8.66;80.11;99355.56;10138366;29;20044;-70
2021/03/11 19:45:47;;;;;;;8.07;3.33;;;;;;;8.55;82.23;99339.56;10137162;29;20096;-70
2021/03/11 19:50:49;;;;;;;8.95;3.13;;;;;;;8.66;82.06;99373.94;10137377;29;20048;-70
2021/03/11 19:55:53;;;;;;;9.23;3.10;;;;;;;8.68;81.51;99378.19;10137791;29;20052;-70
2021/03/11 20:00:54;;;;;;;9.75;2.90;;;;;;;8.59;81.88;99378.69;10137559;29;20423;-70
2021/03/11 20:05:56;;;;;;;7.68;3.10;;;;;;;8.52;83.27;99379.97;10137783;29;20398;-70
2021/03/11 20:11:08;;;;;;;12.63;2.78;;;;;;;8.50;83.70;99384.44;10137209;29;20055;-70
2021/03/11 20:16:10;;;;;;;7.70;2.38;;;;;;;8.46;83.57;99393.41;10136310;29;20060;-70
2021/03/11 20:21:11;;;;;;;5.38;2.05;;;;;;;8.43;83.58;99401.47;10138077;29;20041;-70
2021/03/11 20:26:14;;;;;;;7.60;2.33;;;;;;;8.38;82.91;99399.06;10136726;29;20049;-70
2021/03/11 20:31:16;;;;;;;8.68;2.40;;;;;;;8.36;82.51;99414.09;10157237;29;20385;-70
2021/03/11 20:36:18;;;;;;;9.25;2.20;;;;;;;8.32;82.59;99423.03;10182828;29;20052;-70
2021/03/11 20:41:36;;;;;;;9.07;3.17;;;;;;;8.28;82.62;99411.00;10184006;29;20048;-70
2021/03/11 20:46:39;;;;;;;8.27;2.20;;;;;;;8.20;82.32;99420.19;10181910;29;20115;-70
2021/03/11 20:51:41;;;;;;;11.15;3.38;;;;;;;8.12;81.51;99411.91;10167355;29;20044;-69
2021/03/11 20:56:42;;;;;;;9.57;2.50;;;;;;;8.06;80.89;99393.84;10182406;29;20496;-69
2021/03/11 21:01:44;;;;;;;8.43;2.75;;;;;;;7.85;81.24;99386.19;10183289;29;20099;-70
2021/03/11 21:06:46;;;;;;;8.63;2.95;;;;;;;7.77;82.28;99387.53;10182393;29;20092;-70
2021/03/11 21:12:02;;;;;;;10.00;2.53;;;;;;;7.70;83.50;99410.56;10181950;29;20123;-70
2021/03/11 21:17:03;;;;;;;8.55;2.78;;;;;;;7.74;83.89;99430.47;10181808;29;20052;-70
2021/03/11 21:22:04;;;;;;;5.72;1.83;;;;;;;7.52;84.85;99449.06;10181789;29;20134;-70
2021/03/11 21:27:07;;;;;;;3.03;1.17;;;;;;;6.74;90.47;99391.81;10182068;29;20048;-70
2021/03/11 21:32:09;;;;;;;4.63;1.13;;;;;;;6.46;95.71;99409.72;10181711;29;20044;-69
2021/03/11 21:37:10;;;;;;;4.30;1.17;;;;;;;6.43;98.63;99433.44;10181531;29;20350;-70
2021/03/11 21:42:24;;;;;;;5.28;1.85;;;;;;;6.42;100.00;99474.44;10181469;29;20071;-70
2021/03/11 21:47:25;;;;;;;5.05;1.38;;;;;;;6.41;100.00;99496.28;10180706;29;20048;-70
2021/03/11 21:52:26;;;;;;;4.53;1.55;;;;;;;6.56;100.00;99523.50;10181477;29;20461;-70
2021/03/11 21:57:27;;;;;;;5.07;1.92;;;;;;;6.60;100.00;99532.94;10181302;29;20561;-70
2021/03/11 22:02:29;;;;;;;2.67;1.17;;;;;;;6.57;100.00;99532.22;10180341;29;20509;-70
2021/03/11 22:07:30;;;;;;;5.15;1.58;;;;;;;6.62;99.76;99551.16;10164075;29;20104;-69
2021/03/11 22:12:46;;;;;;;3.22;1.35;;;;;;;6.67;97.48;99549.22;10181158;29;20044;-69
2021/03/11 22:17:49;;;;;;;7.28;1.58;;;;;;;6.62;96.49;99559.88;10179423;29;20059;-70
2021/03/11 22:22:51;;;;;;;3.80;1.40;;;;;;;6.58;96.00;99552.25;10180788;29;20059;-70
2021/03/11 22:27:52;;;;;;;6.10;2.03;;;;;;;6.59;95.28;99569.63;10180202;29;20494;-70
2021/03/11 22:32:54;;;;;;;7.30;2.10;;;;;;;6.62;94.84;99587.81;10163569;29;20147;-70
2021/03/11 22:37:55;;;;;;;5.60;1.65;;;;;;;6.64;94.63;99612.16;10178397;29;20083;-70
2021/03/11 22:43:17;;;;;;;7.00;2.05;;;;;;;6.65;94.29;99625.16;10178736;29;20143;-69
2021/03/11 22:48:19;;;;;;;6.20;2.00;;;;;;;6.64;93.51;99617.38;10178949;29;20439;-70
2021/03/11 22:53:21;;;;;;;5.28;2.25;;;;;;;6.57;93.84;99615.94;10161047;29;20052;-68
2021/03/11 22:58:22;;;;;;;7.15;2.28;;;;;;;6.51;95.39;99624.06;10162940;29;20103;-70
2021/03/11 23:03:23;;;;;;;5.90;1.95;;;;;;;6.42;97.06;99633.16;10159592;29;20044;-71
2021/03/11 23:08:25;;;;;;;6.20;2.08;;;;;;;6.19;100.00;99613.22;10138993;29;20532;-70
2021/03/11 23:13:33;;;;;;;8.13;2.33;;;;;;;6.12;100.00;99650.13;10140076;29;20462;-69
2021/03/11 23:18:34;;;;;;;5.65;2.13;;;;;;;6.04;100.00;99659.16;10138958;29;20455;-70
2021/03/11 23:23:45;;;;;;;7.18;2.08;;;;;;;6.06;100.00;99665.19;10192736;29;20059;-70
2021/03/11 23:28:47;;;;;;;8.88;2.60;;;;;;;6.17;100.00;99685.66;10178816;29;20100;-71